sensor_id;sensor_type;location;lat;lon;timestamp;pressure;altitude;pressure_sealevel;temperature;humidity
47710;BME280;33473;51.640;5.892;2023-04-26T00:09:42;101800;;;8.0;50.0
47710;BME280;33473;51.640;5.892;2023-04-26T00:23:01;101800;;;8.0;51.0
47710;BME280;33473;51.640;5.892;2023-04-26T00:36:21;101800;;;7.9;51.0
47710;BME280;33473;51.640;5.892;2023-04-26T00:49:41;101800;;;7.8;51.0
47710;BME280;33473;51.640;5.892;2023-04-26T01:03:00;101800;;;7.8;51.0
47710;BME280;33473;51.640;5.892;2023-04-26T01:16:20;101800;;;7.7;51.0
47710;BME280;33473;51.640;5.892;2023-04-26T01:29:40;101800;;;7.5;51.0
47710;BME280;33473;51.640;5.892;2023-04-26T01:42:59;101800;;;7.4;51.0
47710;BME280;33473;51.640;5.892;2023-04-26T01:56:19;101800;;;7.3;51.0
47710;BME280;33473;51.640;5.892;2023-04-26T02:09:39;101800;;;7.3;51.0
47710;BME280;33473;51.640;5.892;2023-04-26T02:22:58;101800;;;7.4;51.0
47710;BME280;33473;51.640;5.892;2023-04-26T02:36:18;101800;;;7.2;51.0
47710;BME280;33473;51.640;5.892;2023-04-26T02:49:38;101800;;;7.1;51.0
47710;BME280;33473;51.640;5.892;2023-04-26T03:02:57;101800;;;7.0;51.0
47710;BME280;33473;51.640;5.892;2023-04-26T03:16:17;101800;;;7.0;51.0
47710;BME280;33473;51.640;5.892;2023-04-26T03:29:37;101800;;;7.0;51.0
47710;BME280;33473;51.640;5.892;2023-04-26T03:42:56;101800;;;6.8;51.0
47710;BME280;33473;51.640;5.892;2023-04-26T03:56:16;101800;;;6.7;51.0
47710;BME280;33473;51.640;5.892;2023-04-26T04:09:36;101800;;;6.7;52.0
47710;BME280;33473;51.640;5.892;2023-04-26T04:22:55;101800;;;6.7;51.0
47710;BME280;33473;51.640;5.892;2023-04-26T04:36:15;101800;;;6.7;52.0
47710;BME280;33473;51.640;5.892;2023-04-26T04:49:35;101800;;;6.6;52.0
47710;BME280;33473;51.640;5.892;2023-04-26T05:02:54;101800;;;6.8;52.0
47710;BME280;33473;51.640;5.892;2023-04-26T05:16:14;101800;;;7.1;52.0
47710;BME280;33473;51.640;5.892;2023-04-26T05:29:34;101800;;;7.4;53.0
47710;BME280;33473;51.640;5.892;2023-04-26T05:42:54;101800;;;8.1;54.0
47710;BME280;33473;51.640;5.892;2023-04-26T05:56:13;101800;;;8.9;54.0
47710;BME280;33473;51.640;5.892;2023-04-26T06:09:33;101800;;;9.6;54.0
47710;BME280;33473;51.640;5.892;2023-04-26T06:22:53;101800;;;9.8;53.0
47710;BME280;33473;51.640;5.892;2023-04-26T06:36:12;101800;;;10.7;53.0
47710;BME280;33473;51.640;5.892;2023-04-26T06:49:32;101800;;;12.1;52.0
47710;BME280;33473;51.640;5.892;2023-04-26T07:02:52;101900;;;12.9;48.0
47710;BME280;33473;51.640;5.892;2023-04-26T07:16:11;101900;;;13.9;45.0
47710;BME280;33473;51.640;5.892;2023-04-26T07:29:31;101800;;;14.0;43.0
47710;BME280;33473;51.640;5.892;2023-04-26T07:42:51;101800;;;14.6;39.0
47710;BME280;33473;51.640;5.892;2023-04-26T07:56:10;101800;;;14.3;40.0
47710;BME280;33473;51.640;5.892;2023-04-26T08:09:30;101900;;;13.5;43.0
47710;BME280;33473;51.640;5.892;2023-04-26T08:22:50;101900;;;14.7;39.0
47710;BME280;33473;51.640;5.892;2023-04-26T08:36:09;101900;;;14.9;37.0
47710;BME280;33473;51.640;5.892;2023-04-26T08:49:29;101900;;;13.5;42.0
47710;BME280;33473;51.640;5.892;2023-04-26T09:02:49;101900;;;15.3;34.0
47710;BME280;33473;51.640;5.892;2023-04-26T09:16:08;101800;;;15.7;33.0
47710;BME280;33473;51.640;5.892;2023-04-26T09:29:28;101800;;;15.0;33.0
47710;BME280;33473;51.640;5.892;2023-04-26T09:42:48;101800;;;14.9;34.0
47710;BME280;33473;51.640;5.892;2023-04-26T09:56:07;101800;;;15.8;35.0
47710;BME280;33473;51.640;5.892;2023-04-26T10:09:27;101800;;;17.5;30.0
47710;BME280;33473;51.640;5.892;2023-04-26T10:22:47;101800;;;16.4;31.0
47710;BME280;33473;51.640;5.892;2023-04-26T10:36:06;101800;;;14.3;35.0
47710;BME280;33473;51.640;5.892;2023-04-26T10:49:26;101800;;;14.5;36.0
47710;BME280;33473;51.640;5.892;2023-04-26T11:02:46;101800;;;14.3;35.0
47710;BME280;33473;51.640;5.892;2023-04-26T11:16:06;101800;;;14.1;35.0
47710;BME280;33473;51.640;5.892;2023-04-26T11:29:25;101800;;;15.6;32.0
47710;BME280;33473;51.640;5.892;2023-04-26T11:42:45;101800;;;16.6;29.0
47710;BME280;33473;51.640;5.892;2023-04-26T11:56:05;101800;;;16.6;32.0
47710;BME280;33473;51.640;5.892;2023-04-26T12:09:24;101800;;;17.0;28.0
47710;BME280;33473;51.640;5.892;2023-04-26T12:22:44;101800;;;17.2;28.0
47710;BME280;33473;51.640;5.892;2023-04-26T12:36:04;101800;;;16.6;30.0
47710;BME280;33473;51.640;5.892;2023-04-26T12:49:23;101800;;;16.3;32.0
47710;BME280;33473;51.640;5.892;2023-04-26T13:02:43;101800;;;15.6;31.0
47710;BME280;33473;51.640;5.892;2023-04-26T13:16:03;101800;;;14.9;34.0
47710;BME280;33473;51.640;5.892;2023-04-26T13:29:22;101800;;;16.2;33.0
47710;BME280;33473;51.640;5.892;2023-04-26T13:42:42;101800;;;16.4;34.0
47710;BME280;33473;51.640;5.892;2023-04-26T13:56:02;101800;;;16.3;31.0
47710;BME280;33473;51.640;5.892;2023-04-26T14:09:21;101800;;;16.7;31.0
47710;BME280;33473;51.640;5.892;2023-04-26T14:22:41;101800;;;16.9;32.0
47710;BME280;33473;51.640;5.892;2023-04-26T14:36:01;101800;;;17.3;29.0
47710;BME280;33473;51.640;5.892;2023-04-26T14:49:20;101800;;;16.4;31.0
47710;BME280;33473;51.640;5.892;2023-04-26T15:02:40;101800;;;17.1;29.0
47710;BME280;33473;51.640;5.892;2023-04-26T15:16:00;101800;;;17.3;31.0
47710;BME280;33473;51.640;5.892;2023-04-26T15:29:19;101800;;;16.7;32.0
47710;BME280;33473;51.640;5.892;2023-04-26T15:42:39;101800;;;16.5;30.0
47710;BME280;33473;51.640;5.892;2023-04-26T15:55:59;101800;;;16.4;32.0
47710;BME280;33473;51.640;5.892;2023-04-26T16:09:18;101800;;;17.2;30.0
47710;BME280;33473;51.640;5.892;2023-04-26T16:22:38;101800;;;17.1;29.0
47710;BME280;33473;51.640;5.892;2023-04-26T16:35:58;101700;;;15.9;31.0
47710;BME280;33473;51.640;5.892;2023-04-26T16:49:17;101800;;;15.7;34.0
47710;BME280;33473;51.640;5.892;2023-04-26T17:02:37;101800;;;15.4;33.0
47710;BME280;33473;51.640;5.892;2023-04-26T17:15:57;101800;;;16.4;34.0
47710;BME280;33473;51.640;5.892;2023-04-26T17:29:16;101800;;;16.4;33.0
47710;BME280;33473;51.640;5.892;2023-04-26T17:42:36;101800;;;15.5;35.0
47710;BME280;33473;51.640;5.892;2023-04-26T17:55:56;101800;;;15.4;35.0
47710;BME280;33473;51.640;5.892;2023-04-26T18:09:15;101800;;;15.3;35.0
47710;BME280;33473;51.640;5.892;2023-04-26T18:22:35;101800;;;15.1;36.0
47710;BME280;33473;51.640;5.892;2023-04-26T18:35:55;101800;;;15.1;38.0
47710;BME280;33473;51.640;5.892;2023-04-26T18:49:14;101800;;;14.8;37.0
47710;BME280;33473;51.640;5.892;2023-04-26T19:02:34;101800;;;14.6;38.0
47710;BME280;33473;51.640;5.892;2023-04-26T19:15:54;101800;;;14.4;38.0
47710;BME280;33473;51.640;5.892;2023-04-26T19:29:13;101800;;;14.1;39.0
47710;BME280;33473;51.640;5.892;2023-04-26T19:42:33;101800;;;13.9;39.0
47710;BME280;33473;51.640;5.892;2023-04-26T19:55:53;101900;;;13.8;39.0
47710;BME280;33473;51.640;5.892;2023-04-26T20:09:13;101900;;;13.7;39.0
47710;BME280;33473;51.640;5.892;2023-04-26T20:22:32;101900;;;13.5;40.0
47710;BME280;33473;51.640;5.892;2023-04-26T20:35:52;101900;;;13.3;41.0
47710;BME280;33473;51.640;5.892;2023-04-26T20:49:12;101900;;;13.0;42.0
47710;BME280;33473;51.640;5.892;2023-04-26T21:02:31;101900;;;12.7;42.0
47710;BME280;33473;51.640;5.892;2023-04-26T21:15:51;101900;;;12.5;42.0
47710;BME280;33473;51.640;5.892;2023-04-26T21:29:11;101900;;;12.1;43.0
47710;BME280;33473;51.640;5.892;2023-04-26T21:42:30;101900;;;11.8;43.0
47710;BME280;33473;51.640;5.892;2023-04-26T21:55:50;101900;;;11.5;44.0
47710;BME280;33473;51.640;5.892;2023-04-26T22:09:10;101900;;;11.2;44.0
47710;BME280;33473;51.640;5.892;2023-04-26T22:22:29;101900;;;10.9;45.0
47710;BME280;33473;51.640;5.892;2023-04-26T22:35:49;101900;;;10.7;46.0
47710;BME280;33473;51.640;5.892;2023-04-26T22:49:09;101900;;;10.5;47.0
47710;BME280;33473;51.640;5.892;2023-04-26T23:02:28;101900;;;10.3;46.0
47710;BME280;33473;51.640;5.892;2023-04-26T23:15:48;101900;;;10.2;47.0
47710;BME280;33473;51.640;5.892;2023-04-26T23:29:08;101900;;;10.1;47.0
47710;BME280;33473;51.640;5.892;2023-04-26T23:42:27;101900;;;10.0;47.0
47710;BME280;33473;51.640;5.892;2023-04-26T23:55:47;101900;;;9.7;47.0
